sensor_id;sensor_type;location;lat;lon;timestamp;P1;durP1;ratioP1;P2;durP2;ratioP2
616;SDS011;295;51.628;7.520;2022-10-04T00:02:17;12.97;;;7.70;;
616;SDS011;295;51.628;7.520;2022-10-04T00:05:10;8.57;;;7.30;;
616;SDS011;295;51.628;7.520;2022-10-04T00:08:02;7.73;;;6.97;;
616;SDS011;295;51.628;7.520;2022-10-04T00:10:59;12.07;;;7.60;;
616;SDS011;295;51.628;7.520;2022-10-04T00:13:49;11.03;;;8.40;;
616;SDS011;295;51.628;7.520;2022-10-04T00:16:39;8.47;;;7.53;;
616;SDS011;295;51.628;7.520;2022-10-04T00:19:38;11.27;;;8.00;;
616;SDS011;295;51.628;7.520;2022-10-04T00:22:27;7.70;;;6.80;;
616;SDS011;295;51.628;7.520;2022-10-04T00:25:17;8.47;;;7.63;;
616;SDS011;295;51.628;7.520;2022-10-04T00:31:18;9.67;;;6.70;;
616;SDS011;295;51.628;7.520;2022-10-04T00:37:17;8.67;;;7.63;;
616;SDS011;295;51.628;7.520;2022-10-04T00:40:09;8.00;;;7.30;;
616;SDS011;295;51.628;7.520;2022-10-04T00:42:59;7.97;;;7.13;;
616;SDS011;295;51.628;7.520;2022-10-04T00:45:51;8.27;;;7.57;;
616;SDS011;295;51.628;7.520;2022-10-04T00:48:41;9.37;;;7.90;;
616;SDS011;295;51.628;7.520;2022-10-04T00:51:31;9.00;;;7.20;;
616;SDS011;295;51.628;7.520;2022-10-04T00:54:26;9.10;;;7.63;;
616;SDS011;295;51.628;7.520;2022-10-04T00:57:18;11.30;;;7.13;;
616;SDS011;295;51.628;7.520;2022-10-04T01:00:10;8.43;;;7.27;;
616;SDS011;295;51.628;7.520;2022-10-04T01:03:00;8.83;;;7.80;;
616;SDS011;295;51.628;7.520;2022-10-04T01:05:51;9.00;;;8.03;;
616;SDS011;295;51.628;7.520;2022-10-04T01:08:44;8.80;;;7.90;;
616;SDS011;295;51.628;7.520;2022-10-04T01:11:35;9.63;;;7.63;;
616;SDS011;295;51.628;7.520;2022-10-04T01:14:28;9.37;;;7.90;;
616;SDS011;295;51.628;7.520;2022-10-04T01:17:18;8.70;;;7.47;;
616;SDS011;295;51.628;7.520;2022-10-04T01:23:12;8.27;;;7.50;;
616;SDS011;295;51.628;7.520;2022-10-04T01:26:35;8.30;;;7.47;;
616;SDS011;295;51.628;7.520;2022-10-04T01:29:24;10.20;;;7.67;;
616;SDS011;295;51.628;7.520;2022-10-04T01:32:13;8.60;;;7.00;;
616;SDS011;295;51.628;7.520;2022-10-04T01:35:03;9.33;;;8.13;;
616;SDS011;295;51.628;7.520;2022-10-04T01:37:52;8.97;;;8.17;;
616;SDS011;295;51.628;7.520;2022-10-04T01:40:44;10.07;;;8.57;;
616;SDS011;295;51.628;7.520;2022-10-04T01:43:35;9.53;;;7.60;;
616;SDS011;295;51.628;7.520;2022-10-04T01:46:25;8.40;;;7.60;;
616;SDS011;295;51.628;7.520;2022-10-04T01:49:15;8.73;;;7.20;;
616;SDS011;295;51.628;7.520;2022-10-04T01:52:07;8.00;;;7.20;;
616;SDS011;295;51.628;7.520;2022-10-04T01:54:58;9.70;;;8.27;;
616;SDS011;295;51.628;7.520;2022-10-04T01:57:51;13.83;;;8.30;;
616;SDS011;295;51.628;7.520;2022-10-04T02:00:42;9.07;;;8.13;;
616;SDS011;295;51.628;7.520;2022-10-04T02:03:34;10.97;;;9.47;;
616;SDS011;295;51.628;7.520;2022-10-04T02:06:23;9.07;;;8.17;;
616;SDS011;295;51.628;7.520;2022-10-04T02:09:14;9.50;;;8.70;;
616;SDS011;295;51.628;7.520;2022-10-04T02:12:05;10.03;;;9.03;;
616;SDS011;295;51.628;7.520;2022-10-04T02:18:39;9.20;;;7.80;;
616;SDS011;295;51.628;7.520;2022-10-04T02:21:29;10.57;;;8.60;;
616;SDS011;295;51.628;7.520;2022-10-04T02:24:18;9.40;;;8.30;;
616;SDS011;295;51.628;7.520;2022-10-04T02:27:07;9.13;;;8.10;;
616;SDS011;295;51.628;7.520;2022-10-04T02:29:59;9.60;;;8.60;;
616;SDS011;295;51.628;7.520;2022-10-04T02:32:50;10.17;;;7.83;;
616;SDS011;295;51.628;7.520;2022-10-04T02:35:47;10.53;;;8.40;;
616;SDS011;295;51.628;7.520;2022-10-04T02:38:36;15.50;;;9.50;;
616;SDS011;295;51.628;7.520;2022-10-04T02:41:29;10.43;;;9.10;;
616;SDS011;295;51.628;7.520;2022-10-04T02:44:19;9.87;;;8.93;;
616;SDS011;295;51.628;7.520;2022-10-04T02:47:11;10.27;;;8.60;;
616;SDS011;295;51.628;7.520;2022-10-04T02:50:03;10.60;;;9.67;;
616;SDS011;295;51.628;7.520;2022-10-04T02:52:56;11.20;;;9.63;;
616;SDS011;295;51.628;7.520;2022-10-04T02:55:45;9.33;;;8.50;;
616;SDS011;295;51.628;7.520;2022-10-04T02:58:35;10.23;;;9.07;;
616;SDS011;295;51.628;7.520;2022-10-04T03:01:27;11.53;;;10.10;;
616;SDS011;295;51.628;7.520;2022-10-04T03:04:16;10.87;;;9.37;;
616;SDS011;295;51.628;7.520;2022-10-04T03:07:07;9.53;;;8.53;;
616;SDS011;295;51.628;7.520;2022-10-04T03:09:57;9.70;;;8.27;;
616;SDS011;295;51.628;7.520;2022-10-04T03:12:48;10.90;;;9.63;;
616;SDS011;295;51.628;7.520;2022-10-04T03:15:37;10.67;;;9.10;;
616;SDS011;295;51.628;7.520;2022-10-04T03:18:26;13.80;;;8.77;;
616;SDS011;295;51.628;7.520;2022-10-04T03:21:17;9.93;;;8.97;;
616;SDS011;295;51.628;7.520;2022-10-04T03:24:08;9.20;;;8.47;;
616;SDS011;295;51.628;7.520;2022-10-04T03:27:00;16.00;;;8.50;;
616;SDS011;295;51.628;7.520;2022-10-04T03:29:50;9.70;;;8.70;;
616;SDS011;295;51.628;7.520;2022-10-04T03:32:45;10.73;;;8.93;;
616;SDS011;295;51.628;7.520;2022-10-04T03:35:34;9.33;;;8.50;;
616;SDS011;295;51.628;7.520;2022-10-04T03:38:23;9.07;;;8.13;;
616;SDS011;295;51.628;7.520;2022-10-04T03:41:13;10.27;;;8.17;;
616;SDS011;295;51.628;7.520;2022-10-04T03:44:05;9.87;;;8.97;;
616;SDS011;295;51.628;7.520;2022-10-04T03:46:54;10.30;;;9.30;;
616;SDS011;295;51.628;7.520;2022-10-04T03:49:43;11.33;;;9.50;;
616;SDS011;295;51.628;7.520;2022-10-04T03:52:37;9.80;;;8.90;;
616;SDS011;295;51.628;7.520;2022-10-04T03:55:29;10.53;;;9.00;;
616;SDS011;295;51.628;7.520;2022-10-04T03:58:20;10.20;;;9.20;;
616;SDS011;295;51.628;7.520;2022-10-04T04:01:14;11.57;;;10.33;;
616;SDS011;295;51.628;7.520;2022-10-04T04:04:10;13.03;;;9.93;;
616;SDS011;295;51.628;7.520;2022-10-04T04:07:04;11.40;;;9.97;;
616;SDS011;295;51.628;7.520;2022-10-04T04:09:55;10.50;;;9.40;;
616;SDS011;295;51.628;7.520;2022-10-04T04:12:49;9.10;;;8.30;;
616;SDS011;295;51.628;7.520;2022-10-04T04:15:40;11.67;;;9.20;;
616;SDS011;295;51.628;7.520;2022-10-04T04:18:33;10.57;;;9.47;;
616;SDS011;295;51.628;7.520;2022-10-04T04:21:22;10.37;;;9.37;;
616;SDS011;295;51.628;7.520;2022-10-04T04:24:13;10.43;;;9.53;;
616;SDS011;295;51.628;7.520;2022-10-04T04:27:04;10.43;;;9.43;;
616;SDS011;295;51.628;7.520;2022-10-04T04:29:53;12.03;;;10.90;;
616;SDS011;295;51.628;7.520;2022-10-04T04:32:43;13.23;;;10.20;;
616;SDS011;295;51.628;7.520;2022-10-04T04:35:35;10.33;;;9.53;;
616;SDS011;295;51.628;7.520;2022-10-04T04:38:24;12.07;;;9.23;;
616;SDS011;295;51.628;7.520;2022-10-04T04:41:13;10.83;;;9.83;;
616;SDS011;295;51.628;7.520;2022-10-04T04:44:02;10.97;;;10.07;;
616;SDS011;295;51.628;7.520;2022-10-04T04:46:51;10.87;;;9.87;;
616;SDS011;295;51.628;7.520;2022-10-04T04:49:46;11.60;;;10.60;;
616;SDS011;295;51.628;7.520;2022-10-04T04:52:37;12.70;;;11.17;;
616;SDS011;295;51.628;7.520;2022-10-04T04:55:26;12.10;;;10.90;;
616;SDS011;295;51.628;7.520;2022-10-04T04:58:37;12.07;;;10.57;;
616;SDS011;295;51.628;7.520;2022-10-04T05:01:27;12.37;;;11.20;;
616;SDS011;295;51.628;7.520;2022-10-04T05:04:18;13.83;;;10.87;;
616;SDS011;295;51.628;7.520;2022-10-04T05:07:13;16.20;;;11.40;;
616;SDS011;295;51.628;7.520;2022-10-04T05:10:19;14.37;;;11.40;;
616;SDS011;295;51.628;7.520;2022-10-04T05:13:08;12.80;;;10.70;;
616;SDS011;295;51.628;7.520;2022-10-04T05:15:57;12.53;;;10.53;;
616;SDS011;295;51.628;7.520;2022-10-04T05:18:47;11.77;;;10.67;;
616;SDS011;295;51.628;7.520;2022-10-04T05:21:42;11.33;;;10.27;;
616;SDS011;295;51.628;7.520;2022-10-04T05:24:32;11.83;;;10.63;;
616;SDS011;295;51.628;7.520;2022-10-04T05:27:23;10.70;;;9.83;;
616;SDS011;295;51.628;7.520;2022-10-04T05:30:19;14.40;;;11.60;;
616;SDS011;295;51.628;7.520;2022-10-04T05:33:12;11.67;;;10.47;;
616;SDS011;295;51.628;7.520;2022-10-04T05:36:07;10.43;;;9.33;;
616;SDS011;295;51.628;7.520;2022-10-04T05:39:05;11.90;;;10.60;;
616;SDS011;295;51.628;7.520;2022-10-04T05:41:56;10.87;;;9.70;;
616;SDS011;295;51.628;7.520;2022-10-04T05:44:49;10.43;;;9.53;;
616;SDS011;295;51.628;7.520;2022-10-04T05:47:39;13.43;;;12.30;;
616;SDS011;295;51.628;7.520;2022-10-04T05:50:29;11.70;;;10.60;;
616;SDS011;295;51.628;7.520;2022-10-04T05:53:21;10.90;;;9.90;;
616;SDS011;295;51.628;7.520;2022-10-04T05:56:14;13.60;;;10.70;;
616;SDS011;295;51.628;7.520;2022-10-04T05:59:10;12.50;;;10.67;;
616;SDS011;295;51.628;7.520;2022-10-04T06:02:04;11.53;;;10.53;;
616;SDS011;295;51.628;7.520;2022-10-04T06:05:00;12.93;;;9.87;;
616;SDS011;295;51.628;7.520;2022-10-04T06:07:56;11.57;;;10.47;;
616;SDS011;295;51.628;7.520;2022-10-04T06:10:51;11.93;;;10.17;;
616;SDS011;295;51.628;7.520;2022-10-04T06:13:47;11.60;;;10.50;;
616;SDS011;295;51.628;7.520;2022-10-04T06:16:44;12.13;;;10.40;;
616;SDS011;295;51.628;7.520;2022-10-04T06:22:47;21.73;;;19.40;;
616;SDS011;295;51.628;7.520;2022-10-04T06:25:37;24.60;;;21.63;;
616;SDS011;295;51.628;7.520;2022-10-04T06:28:30;25.27;;;22.53;;
616;SDS011;295;51.628;7.520;2022-10-04T06:31:27;26.90;;;24.20;;
616;SDS011;295;51.628;7.520;2022-10-04T06:34:24;15.07;;;13.50;;
616;SDS011;295;51.628;7.520;2022-10-04T06:37:25;16.50;;;10.20;;
616;SDS011;295;51.628;7.520;2022-10-04T06:40:37;10.50;;;9.50;;
616;SDS011;295;51.628;7.520;2022-10-04T06:43:33;10.97;;;8.77;;
616;SDS011;295;51.628;7.520;2022-10-04T06:46:25;9.33;;;8.17;;
616;SDS011;295;51.628;7.520;2022-10-04T06:52:24;10.03;;;8.17;;
616;SDS011;295;51.628;7.520;2022-10-04T06:55:20;10.87;;;8.00;;
616;SDS011;295;51.628;7.520;2022-10-04T07:01:34;9.80;;;7.90;;
616;SDS011;295;51.628;7.520;2022-10-04T07:04:27;11.00;;;8.27;;
616;SDS011;295;51.628;7.520;2022-10-04T07:07:39;9.67;;;7.67;;
616;SDS011;295;51.628;7.520;2022-10-04T07:10:45;9.13;;;7.00;;
616;SDS011;295;51.628;7.520;2022-10-04T07:13:41;11.97;;;6.93;;
616;SDS011;295;51.628;7.520;2022-10-04T07:16:36;6.70;;;5.40;;
616;SDS011;295;51.628;7.520;2022-10-04T07:19:29;4.77;;;4.37;;
616;SDS011;295;51.628;7.520;2022-10-04T07:22:20;9.60;;;4.50;;
616;SDS011;295;51.628;7.520;2022-10-04T07:25:11;8.93;;;3.80;;
616;SDS011;295;51.628;7.520;2022-10-04T07:28:02;9.53;;;4.87;;
616;SDS011;295;51.628;7.520;2022-10-04T07:31:10;6.17;;;4.40;;
616;SDS011;295;51.628;7.520;2022-10-04T07:34:02;6.90;;;4.63;;
616;SDS011;295;51.628;7.520;2022-10-04T07:36:57;7.03;;;3.80;;
616;SDS011;295;51.628;7.520;2022-10-04T07:39:49;5.70;;;4.07;;
616;SDS011;295;51.628;7.520;2022-10-04T07:42:43;5.50;;;5.00;;
616;SDS011;295;51.628;7.520;2022-10-04T07:45:35;7.90;;;6.03;;
616;SDS011;295;51.628;7.520;2022-10-04T07:48:25;10.07;;;6.40;;
616;SDS011;295;51.628;7.520;2022-10-04T07:51:18;9.07;;;6.13;;
616;SDS011;295;51.628;7.520;2022-10-04T07:54:11;12.33;;;7.07;;
616;SDS011;295;51.628;7.520;2022-10-04T07:57:04;5.90;;;5.13;;
616;SDS011;295;51.628;7.520;2022-10-04T07:59:56;10.90;;;6.50;;
616;SDS011;295;51.628;7.520;2022-10-04T08:02:52;16.60;;;5.80;;
616;SDS011;295;51.628;7.520;2022-10-04T08:05:44;9.50;;;6.00;;
616;SDS011;295;51.628;7.520;2022-10-04T08:08:41;11.07;;;5.50;;
616;SDS011;295;51.628;7.520;2022-10-04T08:11:36;10.07;;;5.60;;
616;SDS011;295;51.628;7.520;2022-10-04T08:14:30;7.97;;;4.23;;
616;SDS011;295;51.628;7.520;2022-10-04T08:17:29;5.77;;;4.33;;
616;SDS011;295;51.628;7.520;2022-10-04T08:20:24;4.47;;;3.47;;
616;SDS011;295;51.628;7.520;2022-10-04T08:26:35;3.60;;;2.67;;
616;SDS011;295;51.628;7.520;2022-10-04T08:29:32;10.30;;;4.10;;
616;SDS011;295;51.628;7.520;2022-10-04T08:32:39;6.03;;;3.50;;
616;SDS011;295;51.628;7.520;2022-10-04T08:35:31;5.77;;;3.10;;
616;SDS011;295;51.628;7.520;2022-10-04T08:38:33;4.37;;;3.97;;
616;SDS011;295;51.628;7.520;2022-10-04T08:57:40;4.53;;;3.07;;
616;SDS011;295;51.628;7.520;2022-10-04T09:00:37;5.35;;;2.83;;
616;SDS011;295;51.628;7.520;2022-10-04T09:03:47;8.20;;;3.67;;
616;SDS011;295;51.628;7.520;2022-10-04T09:06:50;9.68;;;3.88;;
616;SDS011;295;51.628;7.520;2022-10-04T09:09:55;6.32;;;3.05;;
616;SDS011;295;51.628;7.520;2022-10-04T09:12:56;5.03;;;2.97;;
616;SDS011;295;51.628;7.520;2022-10-04T09:15:50;6.00;;;3.95;;
616;SDS011;295;51.628;7.520;2022-10-04T09:18:45;5.53;;;2.97;;
616;SDS011;295;51.628;7.520;2022-10-04T09:21:41;8.35;;;3.33;;
616;SDS011;295;51.628;7.520;2022-10-04T09:27:48;6.40;;;3.90;;
616;SDS011;295;51.628;7.520;2022-10-04T09:30:53;3.45;;;2.50;;
616;SDS011;295;51.628;7.520;2022-10-04T09:33:59;4.68;;;3.13;;
616;SDS011;295;51.628;7.520;2022-10-04T09:37:04;3.53;;;3.17;;
616;SDS011;295;51.628;7.520;2022-10-04T09:43:07;5.20;;;3.80;;
616;SDS011;295;51.628;7.520;2022-10-04T09:46:07;4.97;;;3.50;;
616;SDS011;295;51.628;7.520;2022-10-04T09:49:00;3.30;;;3.00;;
616;SDS011;295;51.628;7.520;2022-10-04T09:51:58;6.15;;;3.38;;
616;SDS011;295;51.628;7.520;2022-10-04T09:54:52;4.10;;;3.70;;
616;SDS011;295;51.628;7.520;2022-10-04T09:57:44;5.63;;;3.38;;
616;SDS011;295;51.628;7.520;2022-10-04T10:00:37;7.10;;;3.40;;
616;SDS011;295;51.628;7.520;2022-10-04T10:03:34;6.40;;;3.50;;
616;SDS011;295;51.628;7.520;2022-10-04T10:06:30;6.22;;;3.30;;
616;SDS011;295;51.628;7.520;2022-10-04T10:09:28;5.53;;;3.25;;
616;SDS011;295;51.628;7.520;2022-10-04T10:12:40;7.18;;;3.20;;
616;SDS011;295;51.628;7.520;2022-10-04T10:15:50;4.28;;;2.40;;
616;SDS011;295;51.628;7.520;2022-10-04T10:18:46;8.32;;;3.60;;
616;SDS011;295;51.628;7.520;2022-10-04T10:21:50;4.97;;;3.42;;
616;SDS011;295;51.628;7.520;2022-10-04T10:24:50;4.65;;;3.00;;
616;SDS011;295;51.628;7.520;2022-10-04T10:27:47;4.80;;;3.10;;
616;SDS011;295;51.628;7.520;2022-10-04T10:30:40;5.32;;;3.20;;
616;SDS011;295;51.628;7.520;2022-10-04T10:33:51;7.03;;;3.00;;
616;SDS011;295;51.628;7.520;2022-10-04T10:36:51;5.40;;;2.72;;
616;SDS011;295;51.628;7.520;2022-10-04T10:39:46;3.92;;;2.88;;
616;SDS011;295;51.628;7.520;2022-10-04T10:42:48;5.25;;;3.13;;
616;SDS011;295;51.628;7.520;2022-10-04T10:45:41;5.57;;;2.75;;
616;SDS011;295;51.628;7.520;2022-10-04T10:48:39;7.60;;;4.00;;
616;SDS011;295;51.628;7.520;2022-10-04T10:57:51;6.25;;;3.00;;
616;SDS011;295;51.628;7.520;2022-10-04T11:00:43;5.85;;;3.17;;
616;SDS011;295;51.628;7.520;2022-10-04T11:03:57;4.30;;;2.75;;
616;SDS011;295;51.628;7.520;2022-10-04T11:07:02;2.80;;;2.50;;
616;SDS011;295;51.628;7.520;2022-10-04T11:10:12;7.70;;;3.03;;
616;SDS011;295;51.628;7.520;2022-10-04T11:19:43;3.85;;;2.47;;
616;SDS011;295;51.628;7.520;2022-10-04T11:26:04;3.05;;;2.70;;
616;SDS011;295;51.628;7.520;2022-10-04T11:28:59;3.95;;;2.67;;
616;SDS011;295;51.628;7.520;2022-10-04T11:32:15;4.50;;;3.00;;
616;SDS011;295;51.628;7.520;2022-10-04T11:35:33;3.75;;;2.80;;
616;SDS011;295;51.628;7.520;2022-10-04T11:38:32;3.85;;;3.20;;
616;SDS011;295;51.628;7.520;2022-10-04T11:41:38;3.47;;;3.08;;
616;SDS011;295;51.628;7.520;2022-10-04T11:47:38;2.53;;;2.20;;
616;SDS011;295;51.628;7.520;2022-10-04T11:50:35;5.82;;;2.80;;
616;SDS011;295;51.628;7.520;2022-10-04T11:56:59;3.97;;;2.90;;
616;SDS011;295;51.628;7.520;2022-10-04T11:59:55;3.78;;;2.63;;
616;SDS011;295;51.628;7.520;2022-10-04T12:02:53;6.22;;;2.97;;
616;SDS011;295;51.628;7.520;2022-10-04T12:05:52;3.90;;;2.42;;
616;SDS011;295;51.628;7.520;2022-10-04T12:08:50;4.88;;;2.53;;
616;SDS011;295;51.628;7.520;2022-10-04T12:15:32;5.07;;;2.70;;
616;SDS011;295;51.628;7.520;2022-10-04T12:21:41;4.45;;;2.70;;
616;SDS011;295;51.628;7.520;2022-10-04T12:24:49;3.58;;;2.78;;
616;SDS011;295;51.628;7.520;2022-10-04T12:31:12;6.95;;;3.92;;
616;SDS011;295;51.628;7.520;2022-10-04T12:34:06;3.58;;;2.70;;
616;SDS011;295;51.628;7.520;2022-10-04T12:37:17;2.30;;;2.10;;
616;SDS011;295;51.628;7.520;2022-10-04T12:40:18;3.28;;;2.33;;
616;SDS011;295;51.628;7.520;2022-10-04T12:43:11;3.75;;;2.00;;
616;SDS011;295;51.628;7.520;2022-10-04T12:46:03;3.50;;;2.20;;
616;SDS011;295;51.628;7.520;2022-10-04T12:49:00;4.28;;;2.65;;
616;SDS011;295;51.628;7.520;2022-10-04T12:51:52;4.68;;;2.20;;
616;SDS011;295;51.628;7.520;2022-10-04T12:54:44;3.70;;;2.78;;
616;SDS011;295;51.628;7.520;2022-10-04T12:57:40;4.43;;;2.47;;
616;SDS011;295;51.628;7.520;2022-10-04T13:00:33;4.20;;;2.10;;
616;SDS011;295;51.628;7.520;2022-10-04T13:03:25;2.13;;;1.90;;
616;SDS011;295;51.628;7.520;2022-10-04T13:06:18;2.85;;;2.58;;
616;SDS011;295;51.628;7.520;2022-10-04T13:09:09;3.30;;;2.40;;
616;SDS011;295;51.628;7.520;2022-10-04T13:12:08;3.65;;;2.13;;
616;SDS011;295;51.628;7.520;2022-10-04T13:15:02;3.53;;;2.10;;
616;SDS011;295;51.628;7.520;2022-10-04T13:17:58;4.30;;;2.60;;
616;SDS011;295;51.628;7.520;2022-10-04T13:20:52;2.08;;;1.73;;
616;SDS011;295;51.628;7.520;2022-10-04T13:23:49;2.40;;;1.80;;
616;SDS011;295;51.628;7.520;2022-10-04T13:26:42;3.65;;;1.90;;
616;SDS011;295;51.628;7.520;2022-10-04T13:29:36;3.63;;;2.03;;
616;SDS011;295;51.628;7.520;2022-10-04T13:32:30;6.03;;;2.75;;
616;SDS011;295;51.628;7.520;2022-10-04T13:35:22;4.50;;;2.00;;
616;SDS011;295;51.628;7.520;2022-10-04T13:38:17;2.80;;;2.22;;
616;SDS011;295;51.628;7.520;2022-10-04T13:41:13;3.53;;;2.10;;
616;SDS011;295;51.628;7.520;2022-10-04T13:44:12;3.63;;;2.05;;
616;SDS011;295;51.628;7.520;2022-10-04T13:47:12;2.72;;;1.88;;
616;SDS011;295;51.628;7.520;2022-10-04T13:50:18;2.90;;;2.60;;
616;SDS011;295;51.628;7.520;2022-10-04T13:53:14;2.10;;;1.80;;
616;SDS011;295;51.628;7.520;2022-10-04T13:56:37;2.58;;;1.70;;
616;SDS011;295;51.628;7.520;2022-10-04T13:59:30;2.47;;;1.75;;
616;SDS011;295;51.628;7.520;2022-10-04T14:02:27;4.55;;;2.20;;
616;SDS011;295;51.628;7.520;2022-10-04T14:05:31;2.70;;;1.65;;
616;SDS011;295;51.628;7.520;2022-10-04T14:11:51;2.83;;;1.90;;
616;SDS011;295;51.628;7.520;2022-10-04T14:18:01;4.57;;;3.15;;
616;SDS011;295;51.628;7.520;2022-10-04T14:24:26;6.50;;;2.10;;
616;SDS011;295;51.628;7.520;2022-10-04T14:27:31;3.67;;;2.47;;
616;SDS011;295;51.628;7.520;2022-10-04T14:30:23;5.03;;;1.90;;
616;SDS011;295;51.628;7.520;2022-10-04T14:33:24;4.00;;;2.15;;
616;SDS011;295;51.628;7.520;2022-10-04T14:36:27;3.15;;;1.90;;
616;SDS011;295;51.628;7.520;2022-10-04T14:39:24;2.80;;;2.42;;
616;SDS011;295;51.628;7.520;2022-10-04T14:48:43;4.28;;;1.90;;
616;SDS011;295;51.628;7.520;2022-10-04T14:51:40;3.83;;;1.88;;
616;SDS011;295;51.628;7.520;2022-10-04T14:54:35;2.80;;;1.58;;
616;SDS011;295;51.628;7.520;2022-10-04T14:57:37;3.17;;;1.40;;
616;SDS011;295;51.628;7.520;2022-10-04T15:00:47;3.13;;;1.70;;
616;SDS011;295;51.628;7.520;2022-10-04T15:03:45;1.73;;;1.35;;
616;SDS011;295;51.628;7.520;2022-10-04T15:06:36;2.53;;;1.87;;
616;SDS011;295;51.628;7.520;2022-10-04T15:12:40;2.33;;;1.50;;
616;SDS011;295;51.628;7.520;2022-10-04T15:15:55;2.50;;;1.63;;
616;SDS011;295;51.628;7.520;2022-10-04T15:18:49;2.43;;;1.30;;
616;SDS011;295;51.628;7.520;2022-10-04T15:21:44;2.23;;;1.80;;
616;SDS011;295;51.628;7.520;2022-10-04T15:24:44;2.17;;;1.53;;
616;SDS011;295;51.628;7.520;2022-10-04T15:27:44;1.60;;;1.37;;
616;SDS011;295;51.628;7.520;2022-10-04T15:30:43;2.73;;;1.43;;
616;SDS011;295;51.628;7.520;2022-10-04T15:33:34;2.20;;;1.40;;
616;SDS011;295;51.628;7.520;2022-10-04T15:36:32;2.70;;;1.47;;
616;SDS011;295;51.628;7.520;2022-10-04T15:42:31;2.73;;;1.77;;
616;SDS011;295;51.628;7.520;2022-10-04T15:45:22;3.90;;;1.60;;
616;SDS011;295;51.628;7.520;2022-10-04T15:48:26;1.80;;;1.40;;
616;SDS011;295;51.628;7.520;2022-10-04T15:51:19;1.90;;;1.40;;
616;SDS011;295;51.628;7.520;2022-10-04T15:54:31;3.57;;;1.67;;
616;SDS011;295;51.628;7.520;2022-10-04T15:57:28;3.47;;;1.70;;
616;SDS011;295;51.628;7.520;2022-10-04T16:00:20;4.63;;;2.00;;
616;SDS011;295;51.628;7.520;2022-10-04T16:03:14;4.40;;;1.50;;
616;SDS011;295;51.628;7.520;2022-10-04T16:06:07;3.50;;;1.93;;
616;SDS011;295;51.628;7.520;2022-10-04T16:09:12;2.20;;;2.00;;
616;SDS011;295;51.628;7.520;2022-10-04T16:12:16;3.23;;;1.63;;
616;SDS011;295;51.628;7.520;2022-10-04T16:15:14;2.23;;;1.70;;
616;SDS011;295;51.628;7.520;2022-10-04T16:21:13;3.97;;;1.90;;
616;SDS011;295;51.628;7.520;2022-10-04T16:30:24;4.50;;;2.50;;
616;SDS011;295;51.628;7.520;2022-10-04T16:33:25;3.43;;;2.17;;
616;SDS011;295;51.628;7.520;2022-10-04T16:36:17;5.10;;;2.10;;
616;SDS011;295;51.628;7.520;2022-10-04T16:39:07;5.17;;;2.37;;
616;SDS011;295;51.628;7.520;2022-10-04T16:42:37;5.57;;;2.20;;
616;SDS011;295;51.628;7.520;2022-10-04T16:45:36;3.47;;;2.13;;
616;SDS011;295;51.628;7.520;2022-10-04T16:48:28;13.03;;;11.70;;
616;SDS011;295;51.628;7.520;2022-10-04T16:51:25;24.13;;;21.43;;
616;SDS011;295;51.628;7.520;2022-10-04T16:54:29;8.50;;;6.40;;
616;SDS011;295;51.628;7.520;2022-10-04T16:57:20;7.63;;;5.77;;
616;SDS011;295;51.628;7.520;2022-10-04T17:03:16;7.10;;;3.20;;
616;SDS011;295;51.628;7.520;2022-10-04T17:06:11;6.47;;;4.03;;
616;SDS011;295;51.628;7.520;2022-10-04T17:09:03;5.83;;;4.20;;
616;SDS011;295;51.628;7.520;2022-10-04T17:18:18;12.83;;;4.23;;
616;SDS011;295;51.628;7.520;2022-10-04T17:21:21;11.70;;;7.00;;
616;SDS011;295;51.628;7.520;2022-10-04T17:24:16;8.30;;;6.60;;
616;SDS011;295;51.628;7.520;2022-10-04T17:30:21;6.50;;;4.80;;
616;SDS011;295;51.628;7.520;2022-10-04T17:33:20;10.20;;;5.83;;
616;SDS011;295;51.628;7.520;2022-10-04T17:36:13;10.37;;;5.30;;
616;SDS011;295;51.628;7.520;2022-10-04T17:39:16;6.33;;;5.53;;
616;SDS011;295;51.628;7.520;2022-10-04T17:42:14;9.27;;;5.37;;
616;SDS011;295;51.628;7.520;2022-10-04T17:45:13;6.90;;;5.47;;
616;SDS011;295;51.628;7.520;2022-10-04T17:48:06;9.27;;;5.40;;
616;SDS011;295;51.628;7.520;2022-10-04T17:51:27;7.10;;;6.10;;
616;SDS011;295;51.628;7.520;2022-10-04T17:54:38;9.23;;;5.40;;
616;SDS011;295;51.628;7.520;2022-10-04T17:57:48;9.17;;;6.47;;
616;SDS011;295;51.628;7.520;2022-10-04T18:03:42;8.70;;;7.50;;
616;SDS011;295;51.628;7.520;2022-10-04T18:06:34;7.30;;;6.27;;
616;SDS011;295;51.628;7.520;2022-10-04T18:09:26;7.80;;;6.97;;
616;SDS011;295;51.628;7.520;2022-10-04T18:12:22;8.63;;;7.30;;
616;SDS011;295;51.628;7.520;2022-10-04T18:15:14;8.73;;;6.80;;
616;SDS011;295;51.628;7.520;2022-10-04T18:18:14;7.90;;;7.10;;
616;SDS011;295;51.628;7.520;2022-10-04T18:21:05;9.63;;;7.50;;
616;SDS011;295;51.628;7.520;2022-10-04T18:23:57;8.97;;;7.97;;
616;SDS011;295;51.628;7.520;2022-10-04T18:26:52;15.00;;;9.03;;
616;SDS011;295;51.628;7.520;2022-10-04T18:29:43;11.50;;;8.77;;
616;SDS011;295;51.628;7.520;2022-10-04T18:32:33;10.37;;;8.33;;
616;SDS011;295;51.628;7.520;2022-10-04T18:35:24;10.77;;;9.67;;
616;SDS011;295;51.628;7.520;2022-10-04T18:38:18;10.57;;;9.47;;
616;SDS011;295;51.628;7.520;2022-10-04T18:41:15;18.00;;;13.70;;
616;SDS011;295;51.628;7.520;2022-10-04T18:44:09;15.03;;;13.43;;
616;SDS011;295;51.628;7.520;2022-10-04T18:47:00;18.03;;;14.50;;
616;SDS011;295;51.628;7.520;2022-10-04T18:49:51;15.97;;;14.37;;
616;SDS011;295;51.628;7.520;2022-10-04T18:52:42;16.83;;;14.70;;
616;SDS011;295;51.628;7.520;2022-10-04T18:55:37;17.57;;;15.40;;
616;SDS011;295;51.628;7.520;2022-10-04T18:58:31;15.73;;;13.40;;
616;SDS011;295;51.628;7.520;2022-10-04T19:01:45;15.80;;;13.03;;
616;SDS011;295;51.628;7.520;2022-10-04T19:04:52;15.40;;;12.93;;
616;SDS011;295;51.628;7.520;2022-10-04T19:07:44;15.50;;;13.50;;
616;SDS011;295;51.628;7.520;2022-10-04T19:10:37;15.90;;;11.03;;
616;SDS011;295;51.628;7.520;2022-10-04T19:13:28;14.00;;;12.50;;
616;SDS011;295;51.628;7.520;2022-10-04T19:16:25;13.97;;;11.83;;
616;SDS011;295;51.628;7.520;2022-10-04T19:19:23;15.60;;;10.27;;
616;SDS011;295;51.628;7.520;2022-10-04T19:22:18;16.80;;;11.40;;
616;SDS011;295;51.628;7.520;2022-10-04T19:25:18;11.67;;;9.83;;
616;SDS011;295;51.628;7.520;2022-10-04T19:28:11;13.30;;;10.13;;
616;SDS011;295;51.628;7.520;2022-10-04T19:31:04;12.00;;;10.70;;
616;SDS011;295;51.628;7.520;2022-10-04T19:33:56;11.23;;;10.17;;
616;SDS011;295;51.628;7.520;2022-10-04T19:36:48;11.00;;;9.70;;
616;SDS011;295;51.628;7.520;2022-10-04T19:39:41;14.50;;;9.60;;
616;SDS011;295;51.628;7.520;2022-10-04T19:42:35;10.97;;;9.57;;
616;SDS011;295;51.628;7.520;2022-10-04T19:45:27;11.07;;;9.03;;
616;SDS011;295;51.628;7.520;2022-10-04T19:48:21;11.73;;;9.10;;
616;SDS011;295;51.628;7.520;2022-10-04T19:51:13;9.90;;;8.90;;
616;SDS011;295;51.628;7.520;2022-10-04T19:54:06;10.67;;;9.60;;
616;SDS011;295;51.628;7.520;2022-10-04T19:57:01;11.80;;;9.07;;
616;SDS011;295;51.628;7.520;2022-10-04T19:59:52;12.17;;;8.70;;
616;SDS011;295;51.628;7.520;2022-10-04T20:02:41;11.60;;;9.50;;
616;SDS011;295;51.628;7.520;2022-10-04T20:05:34;13.40;;;9.70;;
616;SDS011;295;51.628;7.520;2022-10-04T20:08:53;15.03;;;9.30;;
616;SDS011;295;51.628;7.520;2022-10-04T20:11:51;12.70;;;9.00;;
616;SDS011;295;51.628;7.520;2022-10-04T20:14:45;9.00;;;8.10;;
616;SDS011;295;51.628;7.520;2022-10-04T20:17:34;10.23;;;9.00;;
616;SDS011;295;51.628;7.520;2022-10-04T20:26:44;12.30;;;10.73;;
616;SDS011;295;51.628;7.520;2022-10-04T20:32:53;11.17;;;8.30;;
616;SDS011;295;51.628;7.520;2022-10-04T20:39:00;15.37;;;10.20;;
616;SDS011;295;51.628;7.520;2022-10-04T20:45:24;11.47;;;9.17;;
616;SDS011;295;51.628;7.520;2022-10-04T20:48:15;9.60;;;8.70;;
616;SDS011;295;51.628;7.520;2022-10-04T20:51:05;13.37;;;9.40;;
616;SDS011;295;51.628;7.520;2022-10-04T20:53:56;10.30;;;9.20;;
616;SDS011;295;51.628;7.520;2022-10-04T20:56:47;11.10;;;9.10;;
616;SDS011;295;51.628;7.520;2022-10-04T20:59:37;11.13;;;9.13;;
616;SDS011;295;51.628;7.520;2022-10-04T21:02:27;11.50;;;9.40;;